St Andrew — WDC2812 — position and weather

sailwx.info

Track history (hours):
 
Tides and Currents Weather Stations Pressure Air Temp Water Temp Dewpoint Dewpoint Depression Visibility Wind Speed Wind Dir Waves Ship Positions

St Andrew

Owner: Marquette Transportation Company Gulf-Inland, LLC, Jefferson, LA. More information available from US FCC via Universal Licensing System and Coast Guard Vessel Documentation Center.

Last reported at 2018-Feb-25 12:15 UTC. Time now 2018-Feb-25 18:06 UTC.
Position N 29°49' W 092°01'.

Length 22 m; draft 3.2 m.

Type: Tug. MMSI: 366998020.

Date/timePositionNaut miles runAvg speedWind from/ knotsBaromVisibWave heightAir tempDewpointWater temp
2018-Feb-25 12:15N 29°49' W 092°01'1 4.4
2018-Feb-25 12:00N 29°49' W 092°02'2 4.1
2018-Feb-25 11:30N 29°48' W 092°04'2 4.1
2018-Feb-25 11:00N 29°48' W 092°07'2 3.4
2018-Feb-25 10:30N 29°47' W 092°08'2 4.0
2018-Feb-25 10:00N 29°47' W 092°11'2 3.2
2018-Feb-25 09:30N 29°47' W 092°12'1 1.6
2018-Feb-25 09:00N 29°48' W 092°13'2 4.2
2018-Feb-25 08:30N 29°48' W 092°16'2 4.2
2018-Feb-25 07:59N 29°50' W 092°18'2 3.9
2018-Feb-25 07:30N 29°50' W 092°20'44 3.7
2018-Feb-24 19:39N 29°56' W 093°10'1 3.8
2018-Feb-24 19:30N 29°57' W 093°10'2 3.7
2018-Feb-24 19:00N 29°58' W 093°11'2 3.6
2018-Feb-24 18:30N 29°59' W 093°13'2 3.2
2018-Feb-24 18:00N 30°01' W 093°14'1 2.9
2018-Feb-24 17:30N 30°02' W 093°15'1 2.8
2018-Feb-24 17:00N 30°03' W 093°16'2 3.7
2018-Feb-24 16:30N 30°05' W 093°17'1 2.0
2018-Feb-24 16:00N 30°05' W 093°18'0 0.7
2018-Feb-24 15:30N 30°06' W 093°18'1 1.9
2018-Feb-24 15:00N 30°06' W 093°19'2 4.0
2018-Feb-24 14:30N 30°04' W 093°21'1 1.7
2018-Feb-24 14:00N 30°04' W 093°21'0 0.0
2018-Feb-24 13:30N 30°04' W 093°21'0 0.0
2018-Feb-24 13:00N 30°04' W 093°21'1 1.8
2018-Feb-24 12:30N 30°04' W 093°22'2 4.8
2018-Feb-24 12:00N 30°04' W 093°25'2 4.7
2018-Feb-24 11:30N 30°04' W 093°28'2 4.6
2018-Feb-24 11:00N 30°04' W 093°30'9 4.5
2018-Feb-24 08:57N 30°04' W 093°41'2 4.4
2018-Feb-24 08:27N 30°03' W 093°44'2 4.7
2018-Feb-24 08:00N 30°01' W 093°45'3 5.0
2018-Feb-24 07:28N 29°59' W 093°47'3 5.3
2018-Feb-24 07:00N 29°59' W 093°50'2 4.0
2018-Feb-24 06:30N 29°57' W 093°52'2 4.1
2018-Feb-24 06:00N 29°55' W 093°53'3 5.4
2018-Feb-24 05:30N 29°53' W 093°55'2 3.8
2018-Feb-24 05:01N 29°52' W 093°56'2 3.8
2018-Feb-24 04:30N 29°50' W 093°57'1 2.7
2018-Feb-24 04:00N 29°49' W 093°58'0 0.0
2018-Feb-24 03:30N 29°49' W 093°58'0 0.2
2018-Feb-24 03:00N 29°49' W 093°58'0 0.1
2018-Feb-24 02:30N 29°49' W 093°58'0 0.0
2018-Feb-24 02:01N 29°49' W 093°58'0 0.6
2018-Feb-24 01:30N 29°49' W 093°58'3 5.2
2018-Feb-24 01:00N 29°52' W 093°56'3 5.5
2018-Feb-24 00:30N 29°54' W 093°54'3 5.4
2018-Feb-24 00:00N 29°56' W 093°52'3 5.3
2018-Feb-23 23:30N 29°58' W 093°51'2 4.8
2018-Feb-23 23:01N 29°59' W 093°48'3 5.1
2018-Feb-23 22:30N 30°00' W 093°46'2 4.8
2018-Feb-23 22:01N 30°02' W 093°44'3 4.6
2018-Feb-23 21:23N 30°04' W 093°41'12 4.5
2018-Feb-23 18:40N 30°04' W 093°27'1 4.7
2018-Feb-23 18:30N 30°04' W 093°26'4 3.6
2018-Feb-23 17:16N 30°04' W 093°21'2 3.5
2018-Feb-23 16:48N 30°05' W 093°20'1 1.7
2018-Feb-23 16:14N 30°06' W 093°19'0 0.0
2018-Feb-23 15:54N 30°06' W 093°19'0 0.0
2018-Feb-23 15:30N 30°06' W 093°19'0 0.0
2018-Feb-23 14:12N 30°06' W 093°19'0 0.0
2018-Feb-23 13:18N 30°06' W 093°19'0 0.0
2018-Feb-23 13:00N 30°06' W 093°19'0 0.0
2018-Feb-23 12:28N 30°06' W 093°19'0 0.0
2018-Feb-23 11:30N 30°06' W 093°19'0 0.0
2018-Feb-23 10:26N 30°06' W 093°19'0 0.0
2018-Feb-23 10:00N 30°06' W 093°19'0 0.1
2018-Feb-23 09:24N 30°06' W 093°19'1 1.8
2018-Feb-23 08:50N 30°06' W 093°18'1 1.1
2018-Feb-23 08:20N 30°05' W 093°17'3 2.6
2018-Feb-23 07:00N 30°02' W 093°15'8 3.6
2018-Feb-23 04:48N 29°56' W 093°09'1 2.3
2018-Feb-23 04:15N 29°56' W 093°08'0 0.0
2018-Feb-23 04:00N 29°56' W 093°08'0 0.1
2018-Feb-23 03:30N 29°56' W 093°08'0 0.1
2018-Feb-23 02:56N 29°56' W 093°08'0 0.0
2018-Feb-23 02:26N 29°56' W 093°08'0 0.1
2018-Feb-23 02:00N 29°56' W 093°08'0 0.0
2018-Feb-23 01:30N 29°56' W 093°08'0 0.0
2018-Feb-23 01:00N 29°56' W 093°08'0 0.0
2018-Feb-23 00:28N 29°56' W 093°08'0 0.0
2018-Feb-22 23:58N 29°56' W 093°08'0 0.0
2018-Feb-22 23:24N 29°56' W 093°08'0 0.0
2018-Feb-22 22:58N 29°56' W 093°08'0 0.0
2018-Feb-22 22:28N 29°56' W 093°08'0 0.0
2018-Feb-22 21:55N 29°56' W 093°08'0 0.0
2018-Feb-22 21:27N 29°56' W 093°08'0 0.0
2018-Feb-22 20:59N 29°56' W 093°08'0 0.1
2018-Feb-22 19:28N 29°56' W 093°08'42 3.0
2018-Feb-22 05:26N 29°50' W 092°20'3 3.9
2018-Feb-22 04:46N 29°49' W 092°17'1 4.4
2018-Feb-22 04:30N 29°49' W 092°16'2 4.8
2018-Feb-22 04:00N 29°48' W 092°13'1 2.3
2018-Feb-22 03:31N 29°47' W 092°12'1 2.2
2018-Feb-22 03:00N 29°47' W 092°11'0 0.4
2018-Feb-22 02:30N 29°47' W 092°11'1 2.9
2018-Feb-22 02:00N 29°47' W 092°09'2 3.8
2018-Feb-22 01:30N 29°47' W 092°07'2 4.7
2018-Feb-22 01:00N 29°48' W 092°04'68 3.4
2018-Feb-21 05:16N 29°32' W 090°49'2 5.3
2018-Feb-21 04:57N 29°32' W 090°47'1 3.4
2018-Feb-21 04:30N 29°33' W 090°45'2 4.2
2018-Feb-21 04:00N 29°34' W 090°43'2 3.5
2018-Feb-21 03:30N 29°36' W 090°43'1 2.5
2018-Feb-21 03:00N 29°37' W 090°42'1 2.5
2018-Feb-21 02:30N 29°36' W 090°40'2 3.2
2018-Feb-21 02:00N 29°35' W 090°39'2 4.2
2018-Feb-21 01:30N 29°35' W 090°36'2 3.5
2018-Feb-21 01:00N 29°34' W 090°34'3 4.5
2018-Feb-21 00:26N 29°34' W 090°31'3 0.1
2018-Feb-19 14:37N 29°34' W 090°28'1 4.9
2018-Feb-19 14:30N 29°34' W 090°29'2 4.8
2018-Feb-19 14:01N 29°34' W 090°32'3 4.5
2018-Feb-19 13:22N 29°35' W 090°35'2 4.5
2018-Feb-19 13:01N 29°35' W 090°37'2 3.5
2018-Feb-19 12:30N 29°35' W 090°39'2 3.2
2018-Feb-19 12:00N 29°36' W 090°40'1 2.1
2018-Feb-19 11:30N 29°37' W 090°41'0 0.1
2018-Feb-19 11:00N 29°37' W 090°41'1 1.7
2018-Feb-19 10:30N 29°37' W 090°42'2 4.2
2018-Feb-19 10:00N 29°35' W 090°43'2 3.0
2018-Feb-19 09:29N 29°34' W 090°45'1 2.4
2018-Feb-19 09:01N 29°33' W 090°45'2 3.2
2018-Feb-19 08:22N 29°32' W 090°48'1 3.0
2018-Feb-19 08:00N 29°32' W 090°49'  
Track history (hours):
 
Tides and Currents Weather Stations Pressure Air Temp Water Temp Dewpoint Dewpoint Depression Visibility Wind Speed Wind Dir Waves Ship Positions

St Andrew

Owner: Marquette Transportation Company Gulf-Inland, LLC, Jefferson, LA. More information available from US FCC via Universal Licensing System and Coast Guard Vessel Documentation Center.

Last reported at 2018-Feb-25 12:15 UTC. Time now 2018-Feb-25 18:06 UTC.
Position N 29°49' W 092°01'.

Length 22 m; draft 3.2 m.

Type: Tug. MMSI: 366998020.

Date/timePositionNaut miles runAvg speedWind from/ knotsBaromVisibWave heightAir tempDewpointWater temp
2018-Feb-25 12:15N 29°49' W 092°01'1 4.4
2018-Feb-25 12:00N 29°49' W 092°02'2 4.1
2018-Feb-25 11:30N 29°48' W 092°04'2 4.1
2018-Feb-25 11:00N 29°48' W 092°07'2 3.4
2018-Feb-25 10:30N 29°47' W 092°08'2 4.0
2018-Feb-25 10:00N 29°47' W 092°11'2 3.2
2018-Feb-25 09:30N 29°47' W 092°12'1 1.6
2018-Feb-25 09:00N 29°48' W 092°13'2 4.2
2018-Feb-25 08:30N 29°48' W 092°16'2 4.2
2018-Feb-25 07:59N 29°50' W 092°18'2 3.9
2018-Feb-25 07:30N 29°50' W 092°20'44 3.7
2018-Feb-24 19:39N 29°56' W 093°10'1 3.8
2018-Feb-24 19:30N 29°57' W 093°10'2 3.7
2018-Feb-24 19:00N 29°58' W 093°11'2 3.6
2018-Feb-24 18:30N 29°59' W 093°13'2 3.2
2018-Feb-24 18:00N 30°01' W 093°14'1 2.9
2018-Feb-24 17:30N 30°02' W 093°15'1 2.8
2018-Feb-24 17:00N 30°03' W 093°16'2 3.7
2018-Feb-24 16:30N 30°05' W 093°17'1 2.0
2018-Feb-24 16:00N 30°05' W 093°18'0 0.7
2018-Feb-24 15:30N 30°06' W 093°18'1 1.9
2018-Feb-24 15:00N 30°06' W 093°19'2 4.0
2018-Feb-24 14:30N 30°04' W 093°21'1 1.7
2018-Feb-24 14:00N 30°04' W 093°21'0 0.0
2018-Feb-24 13:30N 30°04' W 093°21'0 0.0
2018-Feb-24 13:00N 30°04' W 093°21'1 1.8
2018-Feb-24 12:30N 30°04' W 093°22'2 4.8
2018-Feb-24 12:00N 30°04' W 093°25'2 4.7
2018-Feb-24 11:30N 30°04' W 093°28'2 4.6
2018-Feb-24 11:00N 30°04' W 093°30'9 4.5
2018-Feb-24 08:57N 30°04' W 093°41'2 4.4
2018-Feb-24 08:27N 30°03' W 093°44'2 4.7
2018-Feb-24 08:00N 30°01' W 093°45'3 5.0
2018-Feb-24 07:28N 29°59' W 093°47'3 5.3
2018-Feb-24 07:00N 29°59' W 093°50'2 4.0
2018-Feb-24 06:30N 29°57' W 093°52'2 4.1
2018-Feb-24 06:00N 29°55' W 093°53'3 5.4
2018-Feb-24 05:30N 29°53' W 093°55'2 3.8
2018-Feb-24 05:01N 29°52' W 093°56'2 3.8
2018-Feb-24 04:30N 29°50' W 093°57'1 2.7
2018-Feb-24 04:00N 29°49' W 093°58'0 0.0
2018-Feb-24 03:30N 29°49' W 093°58'0 0.2
2018-Feb-24 03:00N 29°49' W 093°58'0 0.1
2018-Feb-24 02:30N 29°49' W 093°58'0 0.0
2018-Feb-24 02:01N 29°49' W 093°58'0 0.6
2018-Feb-24 01:30N 29°49' W 093°58'3 5.2
2018-Feb-24 01:00N 29°52' W 093°56'3 5.5
2018-Feb-24 00:30N 29°54' W 093°54'3 5.4
2018-Feb-24 00:00N 29°56' W 093°52'3 5.3
2018-Feb-23 23:30N 29°58' W 093°51'2 4.8
2018-Feb-23 23:01N 29°59' W 093°48'3 5.1
2018-Feb-23 22:30N 30°00' W 093°46'2 4.8
2018-Feb-23 22:01N 30°02' W 093°44'3 4.6
2018-Feb-23 21:23N 30°04' W 093°41'12 4.5
2018-Feb-23 18:40N 30°04' W 093°27'1 4.7
2018-Feb-23 18:30N 30°04' W 093°26'4 3.6
2018-Feb-23 17:16N 30°04' W 093°21'2 3.5
2018-Feb-23 16:48N 30°05' W 093°20'1 1.7
2018-Feb-23 16:14N 30°06' W 093°19'0 0.0
2018-Feb-23 15:54N 30°06' W 093°19'0 0.0
2018-Feb-23 15:30N 30°06' W 093°19'0 0.0
2018-Feb-23 14:12N 30°06' W 093°19'0 0.0
2018-Feb-23 13:18N 30°06' W 093°19'0 0.0
2018-Feb-23 13:00N 30°06' W 093°19'0 0.0
2018-Feb-23 12:28N 30°06' W 093°19'0 0.0
2018-Feb-23 11:30N 30°06' W 093°19'0 0.0
2018-Feb-23 10:26N 30°06' W 093°19'0 0.0
2018-Feb-23 10:00N 30°06' W 093°19'0 0.1
2018-Feb-23 09:24N 30°06' W 093°19'1 1.8
2018-Feb-23 08:50N 30°06' W 093°18'1 1.1
2018-Feb-23 08:20N 30°05' W 093°17'3 2.6
2018-Feb-23 07:00N 30°02' W 093°15'8 3.6
2018-Feb-23 04:48N 29°56' W 093°09'1 2.3
2018-Feb-23 04:15N 29°56' W 093°08'0 0.0
2018-Feb-23 04:00N 29°56' W 093°08'0 0.1
2018-Feb-23 03:30N 29°56' W 093°08'0 0.1
2018-Feb-23 02:56N 29°56' W 093°08'0 0.0
2018-Feb-23 02:26N 29°56' W 093°08'0 0.1
2018-Feb-23 02:00N 29°56' W 093°08'0 0.0
2018-Feb-23 01:30N 29°56' W 093°08'0 0.0
2018-Feb-23 01:00N 29°56' W 093°08'0 0.0
2018-Feb-23 00:28N 29°56' W 093°08'0 0.0
2018-Feb-22 23:58N 29°56' W 093°08'0 0.0
2018-Feb-22 23:24N 29°56' W 093°08'0 0.0
2018-Feb-22 22:58N 29°56' W 093°08'0 0.0
2018-Feb-22 22:28N 29°56' W 093°08'0 0.0
2018-Feb-22 21:55N 29°56' W 093°08'0 0.0
2018-Feb-22 21:27N 29°56' W 093°08'0 0.0
2018-Feb-22 20:59N 29°56' W 093°08'0 0.1
2018-Feb-22 19:28N 29°56' W 093°08'42 3.0
2018-Feb-22 05:26N 29°50' W 092°20'3 3.9
2018-Feb-22 04:46N 29°49' W 092°17'1 4.4
2018-Feb-22 04:30N 29°49' W 092°16'2 4.8
2018-Feb-22 04:00N 29°48' W 092°13'1 2.3
2018-Feb-22 03:31N 29°47' W 092°12'1 2.2
2018-Feb-22 03:00N 29°47' W 092°11'0 0.4
2018-Feb-22 02:30N 29°47' W 092°11'1 2.9
2018-Feb-22 02:00N 29°47' W 092°09'2 3.8
2018-Feb-22 01:30N 29°47' W 092°07'2 4.7
2018-Feb-22 01:00N 29°48' W 092°04'68 3.4
2018-Feb-21 05:16N 29°32' W 090°49'2 5.3
2018-Feb-21 04:57N 29°32' W 090°47'1 3.4
2018-Feb-21 04:30N 29°33' W 090°45'2 4.2
2018-Feb-21 04:00N 29°34' W 090°43'2 3.5
2018-Feb-21 03:30N 29°36' W 090°43'1 2.5
2018-Feb-21 03:00N 29°37' W 090°42'1 2.5
2018-Feb-21 02:30N 29°36' W 090°40'2 3.2
2018-Feb-21 02:00N 29°35' W 090°39'2 4.2
2018-Feb-21 01:30N 29°35' W 090°36'2 3.5
2018-Feb-21 01:00N 29°34' W 090°34'3 4.5
2018-Feb-21 00:26N 29°34' W 090°31'3 0.1
2018-Feb-19 14:37N 29°34' W 090°28'1 4.9
2018-Feb-19 14:30N 29°34' W 090°29'2 4.8
2018-Feb-19 14:01N 29°34' W 090°32'3 4.5
2018-Feb-19 13:22N 29°35' W 090°35'2 4.5
2018-Feb-19 13:01N 29°35' W 090°37'2 3.5
2018-Feb-19 12:30N 29°35' W 090°39'2 3.2
2018-Feb-19 12:00N 29°36' W 090°40'1 2.1
2018-Feb-19 11:30N 29°37' W 090°41'0 0.1
2018-Feb-19 11:00N 29°37' W 090°41'1 1.7
2018-Feb-19 10:30N 29°37' W 090°42'2 4.2
2018-Feb-19 10:00N 29°35' W 090°43'2 3.0
2018-Feb-19 09:29N 29°34' W 090°45'1 2.4
2018-Feb-19 09:01N 29°33' W 090°45'2 3.2
2018-Feb-19 08:22N 29°32' W 090°48'1 3.0
2018-Feb-19 08:00N 29°32' W 090°49'  

Dump ship's entire track history